sensor_id;sensor_type;location;lat;lon;timestamp;temperature;humidity
10294;DHT22;5192;50.328;7.610;2022-07-23T00:01:46;19.70;99.90
10294;DHT22;5192;50.328;7.610;2022-07-23T00:04:15;19.70;99.90
10294;DHT22;5192;50.328;7.610;2022-07-23T00:06:42;19.70;99.90
10294;DHT22;5192;50.328;7.610;2022-07-23T00:09:08;19.70;99.90
10294;DHT22;5192;50.328;7.610;2022-07-23T00:11:36;19.70;99.90
10294;DHT22;5192;50.328;7.610;2022-07-23T00:14:02;19.70;99.90
10294;DHT22;5192;50.328;7.610;2022-07-23T00:16:28;19.70;99.90
10294;DHT22;5192;50.328;7.610;2022-07-23T00:18:56;19.60;99.90
10294;DHT22;5192;50.328;7.610;2022-07-23T00:21:24;19.60;99.90
10294;DHT22;5192;50.328;7.610;2022-07-23T00:23:51;19.60;99.90
10294;DHT22;5192;50.328;7.610;2022-07-23T00:26:17;19.60;99.90
10294;DHT22;5192;50.328;7.610;2022-07-23T00:28:44;19.50;99.90
10294;DHT22;5192;50.328;7.610;2022-07-23T00:31:11;19.40;99.90
10294;DHT22;5192;50.328;7.610;2022-07-23T00:33:38;19.40;99.90
10294;DHT22;5192;50.328;7.610;2022-07-23T00:36:05;19.40;99.90
10294;DHT22;5192;50.328;7.610;2022-07-23T00:38:32;19.40;99.90
10294;DHT22;5192;50.328;7.610;2022-07-23T00:40:58;19.30;99.90
10294;DHT22;5192;50.328;7.610;2022-07-23T00:43:24;19.30;99.90
10294;DHT22;5192;50.328;7.610;2022-07-23T00:45:52;19.30;99.90
10294;DHT22;5192;50.328;7.610;2022-07-23T00:48:20;19.30;99.90
10294;DHT22;5192;50.328;7.610;2022-07-23T00:50:46;19.30;99.90
10294;DHT22;5192;50.328;7.610;2022-07-23T00:53:13;19.20;99.90
10294;DHT22;5192;50.328;7.610;2022-07-23T00:55:39;19.20;99.90
10294;DHT22;5192;50.328;7.610;2022-07-23T00:58:05;19.20;99.90
10294;DHT22;5192;50.328;7.610;2022-07-23T01:00:35;19.20;99.90
10294;DHT22;5192;50.328;7.610;2022-07-23T01:03:04;19.10;99.90
10294;DHT22;5192;50.328;7.610;2022-07-23T01:05:32;19.10;99.90
10294;DHT22;5192;50.328;7.610;2022-07-23T01:08:00;19.10;99.90
10294;DHT22;5192;50.328;7.610;2022-07-23T01:10:27;19.00;99.90
10294;DHT22;5192;50.328;7.610;2022-07-23T01:13:06;19.00;99.90
10294;DHT22;5192;50.328;7.610;2022-07-23T01:15:36;19.00;99.90
10294;DHT22;5192;50.328;7.610;2022-07-23T01:18:04;18.90;99.90
10294;DHT22;5192;50.328;7.610;2022-07-23T01:20:36;18.90;99.90
10294;DHT22;5192;50.328;7.610;2022-07-23T01:23:02;18.90;99.90
10294;DHT22;5192;50.328;7.610;2022-07-23T01:25:29;18.80;99.90
10294;DHT22;5192;50.328;7.610;2022-07-23T01:27:57;18.90;99.90
10294;DHT22;5192;50.328;7.610;2022-07-23T01:30:23;18.90;99.90
10294;DHT22;5192;50.328;7.610;2022-07-23T01:32:50;18.90;99.90
10294;DHT22;5192;50.328;7.610;2022-07-23T01:35:17;18.90;99.90
10294;DHT22;5192;50.328;7.610;2022-07-23T01:37:44;18.90;99.90
10294;DHT22;5192;50.328;7.610;2022-07-23T01:40:11;18.90;99.90
10294;DHT22;5192;50.328;7.610;2022-07-23T01:42:38;18.90;99.90
10294;DHT22;5192;50.328;7.610;2022-07-23T01:45:05;18.90;99.90
10294;DHT22;5192;50.328;7.610;2022-07-23T01:47:32;18.90;99.90
10294;DHT22;5192;50.328;7.610;2022-07-23T01:49:59;18.80;99.90
10294;DHT22;5192;50.328;7.610;2022-07-23T01:52:24;18.80;99.90
10294;DHT22;5192;50.328;7.610;2022-07-23T01:54:52;18.90;99.90
10294;DHT22;5192;50.328;7.610;2022-07-23T01:57:18;18.80;99.90
10294;DHT22;5192;50.328;7.610;2022-07-23T01:59:44;18.90;99.90
10294;DHT22;5192;50.328;7.610;2022-07-23T02:02:12;18.80;99.90
10294;DHT22;5192;50.328;7.610;2022-07-23T02:04:39;18.70;99.90
10294;DHT22;5192;50.328;7.610;2022-07-23T02:07:06;18.60;99.90
10294;DHT22;5192;50.328;7.610;2022-07-23T02:09:35;18.60;99.90
10294;DHT22;5192;50.328;7.610;2022-07-23T02:12:04;18.60;99.90
10294;DHT22;5192;50.328;7.610;2022-07-23T02:14:31;18.60;99.90
10294;DHT22;5192;50.328;7.610;2022-07-23T02:16:58;18.60;99.90
10294;DHT22;5192;50.328;7.610;2022-07-23T02:19:25;18.60;99.90
10294;DHT22;5192;50.328;7.610;2022-07-23T02:21:51;18.60;99.90
10294;DHT22;5192;50.328;7.610;2022-07-23T02:24:20;18.60;99.90
10294;DHT22;5192;50.328;7.610;2022-07-23T02:26:47;18.60;99.90
10294;DHT22;5192;50.328;7.610;2022-07-23T02:29:14;18.60;99.90
10294;DHT22;5192;50.328;7.610;2022-07-23T02:31:42;18.50;99.90
10294;DHT22;5192;50.328;7.610;2022-07-23T02:34:10;18.50;99.90
10294;DHT22;5192;50.328;7.610;2022-07-23T02:36:39;18.50;99.90
10294;DHT22;5192;50.328;7.610;2022-07-23T02:39:09;18.50;99.90
10294;DHT22;5192;50.328;7.610;2022-07-23T02:41:36;18.50;99.90
10294;DHT22;5192;50.328;7.610;2022-07-23T02:44:03;18.50;99.90
10294;DHT22;5192;50.328;7.610;2022-07-23T02:46:30;18.50;99.90
10294;DHT22;5192;50.328;7.610;2022-07-23T02:48:56;18.50;99.90
10294;DHT22;5192;50.328;7.610;2022-07-23T02:51:22;18.50;99.90
10294;DHT22;5192;50.328;7.610;2022-07-23T02:53:52;18.50;99.90
10294;DHT22;5192;50.328;7.610;2022-07-23T02:56:19;18.50;99.90
10294;DHT22;5192;50.328;7.610;2022-07-23T02:58:46;18.50;99.90
10294;DHT22;5192;50.328;7.610;2022-07-23T03:01:13;18.60;99.90
10294;DHT22;5192;50.328;7.610;2022-07-23T03:03:40;18.50;99.90
10294;DHT22;5192;50.328;7.610;2022-07-23T03:06:07;18.40;99.90
10294;DHT22;5192;50.328;7.610;2022-07-23T03:08:34;18.40;99.90
10294;DHT22;5192;50.328;7.610;2022-07-23T03:11:01;18.40;99.90
10294;DHT22;5192;50.328;7.610;2022-07-23T03:13:27;18.30;99.90
10294;DHT22;5192;50.328;7.610;2022-07-23T03:15:56;18.30;99.90
10294;DHT22;5192;50.328;7.610;2022-07-23T03:18:23;18.20;99.90
10294;DHT22;5192;50.328;7.610;2022-07-23T03:20:50;18.10;99.90
10294;DHT22;5192;50.328;7.610;2022-07-23T03:23:18;18.20;99.90
10294;DHT22;5192;50.328;7.610;2022-07-23T03:25:45;18.10;99.90
10294;DHT22;5192;50.328;7.610;2022-07-23T03:28:14;18.00;99.90
10294;DHT22;5192;50.328;7.610;2022-07-23T03:30:45;18.00;99.90
10294;DHT22;5192;50.328;7.610;2022-07-23T03:33:18;18.00;99.90
10294;DHT22;5192;50.328;7.610;2022-07-23T03:35:46;18.00;99.90
10294;DHT22;5192;50.328;7.610;2022-07-23T03:38:12;17.90;99.90
10294;DHT22;5192;50.328;7.610;2022-07-23T03:40:38;17.90;99.90
10294;DHT22;5192;50.328;7.610;2022-07-23T03:43:05;17.90;99.90
10294;DHT22;5192;50.328;7.610;2022-07-23T03:45:32;17.90;99.90
10294;DHT22;5192;50.328;7.610;2022-07-23T03:48:00;17.80;99.90
10294;DHT22;5192;50.328;7.610;2022-07-23T03:50:26;17.70;99.90
10294;DHT22;5192;50.328;7.610;2022-07-23T03:52:53;17.70;99.90
10294;DHT22;5192;50.328;7.610;2022-07-23T03:55:20;17.60;99.90
10294;DHT22;5192;50.328;7.610;2022-07-23T03:57:48;17.50;99.90
10294;DHT22;5192;50.328;7.610;2022-07-23T04:00:14;17.50;99.90
10294;DHT22;5192;50.328;7.610;2022-07-23T04:02:41;17.40;99.90
10294;DHT22;5192;50.328;7.610;2022-07-23T04:05:07;17.40;99.90
10294;DHT22;5192;50.328;7.610;2022-07-23T04:07:33;17.30;99.90
10294;DHT22;5192;50.328;7.610;2022-07-23T04:10:03;17.30;99.90
10294;DHT22;5192;50.328;7.610;2022-07-23T04:12:30;17.30;99.90
10294;DHT22;5192;50.328;7.610;2022-07-23T04:14:58;17.30;99.90
10294;DHT22;5192;50.328;7.610;2022-07-23T04:17:24;17.30;99.90
10294;DHT22;5192;50.328;7.610;2022-07-23T04:19:52;17.20;99.90
10294;DHT22;5192;50.328;7.610;2022-07-23T04:22:19;17.20;99.90
10294;DHT22;5192;50.328;7.610;2022-07-23T04:24:47;17.20;99.90
10294;DHT22;5192;50.328;7.610;2022-07-23T04:27:13;17.20;99.90
10294;DHT22;5192;50.328;7.610;2022-07-23T04:29:39;17.20;99.90
10294;DHT22;5192;50.328;7.610;2022-07-23T04:32:07;17.10;99.90
10294;DHT22;5192;50.328;7.610;2022-07-23T04:34:33;17.10;99.90
10294;DHT22;5192;50.328;7.610;2022-07-23T04:37:00;17.10;99.90
10294;DHT22;5192;50.328;7.610;2022-07-23T04:39:26;17.10;99.90
10294;DHT22;5192;50.328;7.610;2022-07-23T04:41:53;17.10;99.90
10294;DHT22;5192;50.328;7.610;2022-07-23T04:44:20;17.20;99.90
10294;DHT22;5192;50.328;7.610;2022-07-23T04:46:46;17.10;99.90
10294;DHT22;5192;50.328;7.610;2022-07-23T04:49:12;17.10;99.90
10294;DHT22;5192;50.328;7.610;2022-07-23T04:51:38;17.10;99.90
10294;DHT22;5192;50.328;7.610;2022-07-23T04:54:06;17.00;99.90
10294;DHT22;5192;50.328;7.610;2022-07-23T04:56:34;17.00;99.90
10294;DHT22;5192;50.328;7.610;2022-07-23T04:59:03;17.00;99.90
10294;DHT22;5192;50.328;7.610;2022-07-23T05:01:30;17.00;99.90
10294;DHT22;5192;50.328;7.610;2022-07-23T05:03:57;17.00;99.90
10294;DHT22;5192;50.328;7.610;2022-07-23T05:06:23;17.00;99.90
10294;DHT22;5192;50.328;7.610;2022-07-23T05:08:51;17.00;99.90
10294;DHT22;5192;50.328;7.610;2022-07-23T05:11:17;17.00;99.90
10294;DHT22;5192;50.328;7.610;2022-07-23T05:13:43;17.00;99.90
10294;DHT22;5192;50.328;7.610;2022-07-23T05:16:10;17.00;99.90
10294;DHT22;5192;50.328;7.610;2022-07-23T05:18:37;17.10;99.90
10294;DHT22;5192;50.328;7.610;2022-07-23T05:21:06;17.10;99.90
10294;DHT22;5192;50.328;7.610;2022-07-23T05:23:33;17.20;99.90
10294;DHT22;5192;50.328;7.610;2022-07-23T05:26:01;17.30;99.90
10294;DHT22;5192;50.328;7.610;2022-07-23T05:28:28;17.30;99.90
10294;DHT22;5192;50.328;7.610;2022-07-23T05:30:54;17.40;99.90
10294;DHT22;5192;50.328;7.610;2022-07-23T05:33:21;17.40;99.90
10294;DHT22;5192;50.328;7.610;2022-07-23T05:35:49;17.50;99.90
10294;DHT22;5192;50.328;7.610;2022-07-23T05:38:16;17.60;99.90
10294;DHT22;5192;50.328;7.610;2022-07-23T05:40:43;17.70;99.90
10294;DHT22;5192;50.328;7.610;2022-07-23T05:43:08;17.80;99.90
10294;DHT22;5192;50.328;7.610;2022-07-23T05:45:35;17.90;99.90
10294;DHT22;5192;50.328;7.610;2022-07-23T05:48:02;17.90;99.90
10294;DHT22;5192;50.328;7.610;2022-07-23T05:50:29;18.00;99.90
10294;DHT22;5192;50.328;7.610;2022-07-23T05:52:56;18.10;99.90
10294;DHT22;5192;50.328;7.610;2022-07-23T05:55:23;18.20;99.90
10294;DHT22;5192;50.328;7.610;2022-07-23T05:57:49;18.40;99.90
10294;DHT22;5192;50.328;7.610;2022-07-23T06:00:17;18.50;99.90
10294;DHT22;5192;50.328;7.610;2022-07-23T06:02:45;18.60;99.90
10294;DHT22;5192;50.328;7.610;2022-07-23T06:05:13;18.70;99.90
10294;DHT22;5192;50.328;7.610;2022-07-23T06:07:40;18.60;99.90
10294;DHT22;5192;50.328;7.610;2022-07-23T06:10:08;18.60;99.90
10294;DHT22;5192;50.328;7.610;2022-07-23T06:12:34;18.50;99.90
10294;DHT22;5192;50.328;7.610;2022-07-23T06:15:01;18.60;99.90
10294;DHT22;5192;50.328;7.610;2022-07-23T06:17:27;18.60;99.90
10294;DHT22;5192;50.328;7.610;2022-07-23T06:19:55;18.70;99.90
10294;DHT22;5192;50.328;7.610;2022-07-23T06:22:22;18.70;99.90
10294;DHT22;5192;50.328;7.610;2022-07-23T06:24:49;18.70;99.90
10294;DHT22;5192;50.328;7.610;2022-07-23T06:27:17;18.80;99.90
10294;DHT22;5192;50.328;7.610;2022-07-23T06:29:43;18.80;99.90
10294;DHT22;5192;50.328;7.610;2022-07-23T06:32:10;18.90;99.90
10294;DHT22;5192;50.328;7.610;2022-07-23T06:34:36;19.00;99.90
10294;DHT22;5192;50.328;7.610;2022-07-23T06:37:03;19.10;99.90
10294;DHT22;5192;50.328;7.610;2022-07-23T06:39:30;19.10;99.90
10294;DHT22;5192;50.328;7.610;2022-07-23T06:41:57;19.10;99.90
10294;DHT22;5192;50.328;7.610;2022-07-23T06:44:24;19.20;99.90
10294;DHT22;5192;50.328;7.610;2022-07-23T06:46:51;19.20;99.90
10294;DHT22;5192;50.328;7.610;2022-07-23T06:49:17;19.30;99.90
10294;DHT22;5192;50.328;7.610;2022-07-23T06:51:45;19.40;99.90
10294;DHT22;5192;50.328;7.610;2022-07-23T06:54:11;19.40;99.90
10294;DHT22;5192;50.328;7.610;2022-07-23T06:56:39;19.50;99.90
10294;DHT22;5192;50.328;7.610;2022-07-23T06:59:05;19.60;99.90
10294;DHT22;5192;50.328;7.610;2022-07-23T07:01:33;19.70;99.90
10294;DHT22;5192;50.328;7.610;2022-07-23T07:04:00;19.60;99.90
10294;DHT22;5192;50.328;7.610;2022-07-23T07:06:25;19.70;99.90
10294;DHT22;5192;50.328;7.610;2022-07-23T07:08:54;19.70;99.90
10294;DHT22;5192;50.328;7.610;2022-07-23T07:11:21;19.70;99.90
10294;DHT22;5192;50.328;7.610;2022-07-23T07:13:47;19.70;99.90
10294;DHT22;5192;50.328;7.610;2022-07-23T07:16:14;19.60;99.90
10294;DHT22;5192;50.328;7.610;2022-07-23T07:18:41;19.60;99.90
10294;DHT22;5192;50.328;7.610;2022-07-23T07:21:08;19.60;99.90
10294;DHT22;5192;50.328;7.610;2022-07-23T07:23:34;19.50;99.90
10294;DHT22;5192;50.328;7.610;2022-07-23T07:26:00;19.60;99.90
10294;DHT22;5192;50.328;7.610;2022-07-23T07:28:27;19.60;99.90
10294;DHT22;5192;50.328;7.610;2022-07-23T07:30:54;19.70;99.90
10294;DHT22;5192;50.328;7.610;2022-07-23T07:33:21;19.70;99.90
10294;DHT22;5192;50.328;7.610;2022-07-23T07:35:48;19.70;99.90
10294;DHT22;5192;50.328;7.610;2022-07-23T07:38:19;19.70;99.90
10294;DHT22;5192;50.328;7.610;2022-07-23T07:40:47;19.80;99.90
10294;DHT22;5192;50.328;7.610;2022-07-23T07:43:14;19.90;99.90
10294;DHT22;5192;50.328;7.610;2022-07-23T07:45:42;19.90;99.90
10294;DHT22;5192;50.328;7.610;2022-07-23T07:48:09;19.90;99.90
10294;DHT22;5192;50.328;7.610;2022-07-23T07:50:35;19.80;99.90
10294;DHT22;5192;50.328;7.610;2022-07-23T07:53:03;19.80;99.90
10294;DHT22;5192;50.328;7.610;2022-07-23T07:55:29;19.90;99.90
10294;DHT22;5192;50.328;7.610;2022-07-23T07:57:58;19.90;99.90
10294;DHT22;5192;50.328;7.610;2022-07-23T08:00:26;20.00;99.90
10294;DHT22;5192;50.328;7.610;2022-07-23T08:02:58;20.00;99.90
10294;DHT22;5192;50.328;7.610;2022-07-23T08:05:26;20.10;99.90
10294;DHT22;5192;50.328;7.610;2022-07-23T08:07:53;20.20;99.90
10294;DHT22;5192;50.328;7.610;2022-07-23T08:10:21;20.10;99.90
10294;DHT22;5192;50.328;7.610;2022-07-23T08:12:50;20.20;99.90
10294;DHT22;5192;50.328;7.610;2022-07-23T08:15:19;20.30;99.90
10294;DHT22;5192;50.328;7.610;2022-07-23T08:17:47;20.40;99.90
10294;DHT22;5192;50.328;7.610;2022-07-23T08:20:17;20.50;99.90
10294;DHT22;5192;50.328;7.610;2022-07-23T08:22:57;20.60;99.90
10294;DHT22;5192;50.328;7.610;2022-07-23T08:25:42;20.80;99.90
10294;DHT22;5192;50.328;7.610;2022-07-23T08:28:12;21.00;99.90
10294;DHT22;5192;50.328;7.610;2022-07-23T08:30:39;21.20;99.90
10294;DHT22;5192;50.328;7.610;2022-07-23T08:33:24;21.40;99.90
10294;DHT22;5192;50.328;7.610;2022-07-23T08:35:51;21.60;99.90
10294;DHT22;5192;50.328;7.610;2022-07-23T08:38:21;21.60;99.90
10294;DHT22;5192;50.328;7.610;2022-07-23T08:40:51;21.50;99.90
10294;DHT22;5192;50.328;7.610;2022-07-23T08:43:26;21.70;99.90
10294;DHT22;5192;50.328;7.610;2022-07-23T08:46:03;21.80;99.90
10294;DHT22;5192;50.328;7.610;2022-07-23T08:48:35;21.80;99.90
10294;DHT22;5192;50.328;7.610;2022-07-23T08:51:05;21.80;99.90
10294;DHT22;5192;50.328;7.610;2022-07-23T08:53:34;21.80;99.90
10294;DHT22;5192;50.328;7.610;2022-07-23T08:56:07;21.80;99.90
10294;DHT22;5192;50.328;7.610;2022-07-23T08:58:34;21.70;99.90
10294;DHT22;5192;50.328;7.610;2022-07-23T09:01:00;21.70;99.90
10294;DHT22;5192;50.328;7.610;2022-07-23T09:03:32;21.70;99.90
10294;DHT22;5192;50.328;7.610;2022-07-23T09:06:01;21.80;99.90
10294;DHT22;5192;50.328;7.610;2022-07-23T09:08:49;21.80;99.90
10294;DHT22;5192;50.328;7.610;2022-07-23T09:11:18;21.90;99.90
10294;DHT22;5192;50.328;7.610;2022-07-23T09:13:59;22.00;99.90
10294;DHT22;5192;50.328;7.610;2022-07-23T09:16:31;22.00;99.90
10294;DHT22;5192;50.328;7.610;2022-07-23T09:19:05;21.90;99.90
10294;DHT22;5192;50.328;7.610;2022-07-23T09:21:37;21.90;99.90
10294;DHT22;5192;50.328;7.610;2022-07-23T09:24:21;22.00;99.90
10294;DHT22;5192;50.328;7.610;2022-07-23T09:26:48;22.00;99.90
10294;DHT22;5192;50.328;7.610;2022-07-23T09:29:19;22.20;99.90
10294;DHT22;5192;50.328;7.610;2022-07-23T09:32:13;22.30;99.90
10294;DHT22;5192;50.328;7.610;2022-07-23T09:34:40;22.50;81.00
10294;DHT22;5192;50.328;7.610;2022-07-23T09:37:33;22.40;76.40
10294;DHT22;5192;50.328;7.610;2022-07-23T09:40:09;22.50;70.60
10294;DHT22;5192;50.328;7.610;2022-07-23T09:42:57;22.50;72.00
10294;DHT22;5192;50.328;7.610;2022-07-23T09:45:24;22.50;61.70
10294;DHT22;5192;50.328;7.610;2022-07-23T09:47:50;22.60;43.50
10294;DHT22;5192;50.328;7.610;2022-07-23T09:50:21;22.80;42.60
10294;DHT22;5192;50.328;7.610;2022-07-23T09:52:48;23.00;28.30
10294;DHT22;5192;50.328;7.610;2022-07-23T09:55:16;23.00;28.10
10294;DHT22;5192;50.328;7.610;2022-07-23T09:57:45;23.20;14.20
10294;DHT22;5192;50.328;7.610;2022-07-23T10:00:13;23.30;6.50
10294;DHT22;5192;50.328;7.610;2022-07-23T10:02:41;23.30;1.00
10294;DHT22;5192;50.328;7.610;2022-07-23T10:05:08;23.30;1.00
10294;DHT22;5192;50.328;7.610;2022-07-23T10:07:40;23.30;1.00
10294;DHT22;5192;50.328;7.610;2022-07-23T10:10:10;23.30;1.00
10294;DHT22;5192;50.328;7.610;2022-07-23T10:12:38;23.20;1.00
10294;DHT22;5192;50.328;7.610;2022-07-23T10:15:24;23.40;1.00
10294;DHT22;5192;50.328;7.610;2022-07-23T10:17:52;23.40;1.00
10294;DHT22;5192;50.328;7.610;2022-07-23T10:20:20;23.40;1.00
10294;DHT22;5192;50.328;7.610;2022-07-23T10:27:15;23.60;1.00
10294;DHT22;5192;50.328;7.610;2022-07-23T10:32:16;23.90;1.00
10294;DHT22;5192;50.328;7.610;2022-07-23T10:35:05;24.10;1.00
10294;DHT22;5192;50.328;7.610;2022-07-23T10:37:49;24.30;1.00
10294;DHT22;5192;50.328;7.610;2022-07-23T10:40:19;24.30;1.00
10294;DHT22;5192;50.328;7.610;2022-07-23T10:43:15;24.30;1.00
10294;DHT22;5192;50.328;7.610;2022-07-23T10:45:43;24.50;1.00
10294;DHT22;5192;50.328;7.610;2022-07-23T10:48:25;24.70;1.00
10294;DHT22;5192;50.328;7.610;2022-07-23T10:51:15;24.80;1.00
10294;DHT22;5192;50.328;7.610;2022-07-23T10:53:58;25.00;1.00
10294;DHT22;5192;50.328;7.610;2022-07-23T10:59:27;24.90;1.00
10294;DHT22;5192;50.328;7.610;2022-07-23T11:01:54;25.10;1.00
10294;DHT22;5192;50.328;7.610;2022-07-23T11:04:52;25.20;1.00
10294;DHT22;5192;50.328;7.610;2022-07-23T11:07:20;25.50;1.00
10294;DHT22;5192;50.328;7.610;2022-07-23T11:09:46;25.50;1.00
10294;DHT22;5192;50.328;7.610;2022-07-23T11:20:39;25.80;1.00
10294;DHT22;5192;50.328;7.610;2022-07-23T11:23:04;25.60;1.00
10294;DHT22;5192;50.328;7.610;2022-07-23T11:25:35;25.50;1.00
10294;DHT22;5192;50.328;7.610;2022-07-23T11:28:15;25.70;1.00
10294;DHT22;5192;50.328;7.610;2022-07-23T11:30:43;25.90;1.00
10294;DHT22;5192;50.328;7.610;2022-07-23T11:33:29;26.10;1.00
10294;DHT22;5192;50.328;7.610;2022-07-23T11:36:02;26.10;1.00
10294;DHT22;5192;50.328;7.610;2022-07-23T11:38:30;26.10;1.00
10294;DHT22;5192;50.328;7.610;2022-07-23T11:40:59;26.10;1.00
10294;DHT22;5192;50.328;7.610;2022-07-23T11:43:25;26.30;1.00
10294;DHT22;5192;50.328;7.610;2022-07-23T11:45:57;26.50;1.00
10294;DHT22;5192;50.328;7.610;2022-07-23T11:48:29;26.50;1.00
10294;DHT22;5192;50.328;7.610;2022-07-23T11:50:57;26.50;1.00
10294;DHT22;5192;50.328;7.610;2022-07-23T11:53:27;26.60;1.00
10294;DHT22;5192;50.328;7.610;2022-07-23T11:56:11;26.80;1.00
10294;DHT22;5192;50.328;7.610;2022-07-23T11:58:59;26.80;1.00
10294;DHT22;5192;50.328;7.610;2022-07-23T12:01:27;26.90;1.00
10294;DHT22;5192;50.328;7.610;2022-07-23T12:03:54;26.80;1.00
10294;DHT22;5192;50.328;7.610;2022-07-23T12:06:20;26.90;1.00
10294;DHT22;5192;50.328;7.610;2022-07-23T12:08:46;27.10;1.00
10294;DHT22;5192;50.328;7.610;2022-07-23T12:11:12;27.00;1.00
10294;DHT22;5192;50.328;7.610;2022-07-23T12:13:37;27.10;1.00
10294;DHT22;5192;50.328;7.610;2022-07-23T12:16:06;27.30;1.00
10294;DHT22;5192;50.328;7.610;2022-07-23T12:18:37;27.30;1.00
10294;DHT22;5192;50.328;7.610;2022-07-23T12:21:04;27.40;1.00
10294;DHT22;5192;50.328;7.610;2022-07-23T12:23:34;27.40;1.00
10294;DHT22;5192;50.328;7.610;2022-07-23T12:26:05;27.80;1.00
10294;DHT22;5192;50.328;7.610;2022-07-23T12:28:33;27.70;1.00
10294;DHT22;5192;50.328;7.610;2022-07-23T12:31:04;27.50;1.00
10294;DHT22;5192;50.328;7.610;2022-07-23T12:33:41;27.30;1.00
10294;DHT22;5192;50.328;7.610;2022-07-23T12:36:10;27.20;1.00
10294;DHT22;5192;50.328;7.610;2022-07-23T12:38:43;27.20;1.00
10294;DHT22;5192;50.328;7.610;2022-07-23T12:41:13;27.10;1.00
10294;DHT22;5192;50.328;7.610;2022-07-23T12:43:45;27.40;1.00
10294;DHT22;5192;50.328;7.610;2022-07-23T12:46:24;27.60;1.00
10294;DHT22;5192;50.328;7.610;2022-07-23T12:49:10;27.90;1.00
10294;DHT22;5192;50.328;7.610;2022-07-23T12:51:39;28.20;1.00
10294;DHT22;5192;50.328;7.610;2022-07-23T12:54:27;28.20;1.00
10294;DHT22;5192;50.328;7.610;2022-07-23T12:56:53;28.30;1.00
10294;DHT22;5192;50.328;7.610;2022-07-23T12:59:20;28.40;1.00
10294;DHT22;5192;50.328;7.610;2022-07-23T13:01:55;28.40;1.00
10294;DHT22;5192;50.328;7.610;2022-07-23T13:04:25;28.40;1.00
10294;DHT22;5192;50.328;7.610;2022-07-23T13:07:00;28.20;1.00
10294;DHT22;5192;50.328;7.610;2022-07-23T13:09:29;28.20;1.00
10294;DHT22;5192;50.328;7.610;2022-07-23T13:11:56;27.80;1.00
10294;DHT22;5192;50.328;7.610;2022-07-23T13:14:25;27.70;1.00
10294;DHT22;5192;50.328;7.610;2022-07-23T13:16:59;27.60;1.00
10294;DHT22;5192;50.328;7.610;2022-07-23T13:19:24;27.50;1.00
10294;DHT22;5192;50.328;7.610;2022-07-23T13:21:52;27.60;1.00
10294;DHT22;5192;50.328;7.610;2022-07-23T13:24:20;27.80;1.00
10294;DHT22;5192;50.328;7.610;2022-07-23T13:26:45;28.00;1.00
10294;DHT22;5192;50.328;7.610;2022-07-23T13:29:17;28.10;1.00
10294;DHT22;5192;50.328;7.610;2022-07-23T13:31:44;28.20;1.00
10294;DHT22;5192;50.328;7.610;2022-07-23T13:34:12;28.40;1.00
10294;DHT22;5192;50.328;7.610;2022-07-23T13:36:39;28.60;1.00
10294;DHT22;5192;50.328;7.610;2022-07-23T13:39:05;28.80;1.00
10294;DHT22;5192;50.328;7.610;2022-07-23T13:41:33;28.90;1.00
10294;DHT22;5192;50.328;7.610;2022-07-23T13:44:01;29.20;1.00
10294;DHT22;5192;50.328;7.610;2022-07-23T13:46:27;29.30;1.00
10294;DHT22;5192;50.328;7.610;2022-07-23T13:48:52;29.20;1.00
10294;DHT22;5192;50.328;7.610;2022-07-23T13:51:19;29.10;1.00
10294;DHT22;5192;50.328;7.610;2022-07-23T13:53:47;29.10;1.00
10294;DHT22;5192;50.328;7.610;2022-07-23T13:56:15;29.30;1.00
10294;DHT22;5192;50.328;7.610;2022-07-23T13:58:41;29.40;1.00
10294;DHT22;5192;50.328;7.610;2022-07-23T14:01:06;29.60;1.00
10294;DHT22;5192;50.328;7.610;2022-07-23T14:03:32;29.90;1.00
10294;DHT22;5192;50.328;7.610;2022-07-23T14:05:59;30.30;1.00
10294;DHT22;5192;50.328;7.610;2022-07-23T14:08:26;30.40;1.00
10294;DHT22;5192;50.328;7.610;2022-07-23T14:10:52;30.10;1.00
10294;DHT22;5192;50.328;7.610;2022-07-23T14:13:19;29.90;1.00
10294;DHT22;5192;50.328;7.610;2022-07-23T14:15:44;30.00;1.00
10294;DHT22;5192;50.328;7.610;2022-07-23T14:18:11;30.30;1.00
10294;DHT22;5192;50.328;7.610;2022-07-23T14:20:39;30.50;1.00
10294;DHT22;5192;50.328;7.610;2022-07-23T14:23:04;30.60;1.00
10294;DHT22;5192;50.328;7.610;2022-07-23T14:25:32;31.10;1.00
10294;DHT22;5192;50.328;7.610;2022-07-23T14:28:02;31.70;1.00
10294;DHT22;5192;50.328;7.610;2022-07-23T14:30:28;31.80;1.00
10294;DHT22;5192;50.328;7.610;2022-07-23T14:32:55;32.40;1.00
10294;DHT22;5192;50.328;7.610;2022-07-23T14:35:24;32.90;1.00
10294;DHT22;5192;50.328;7.610;2022-07-23T14:37:51;32.60;1.00
10294;DHT22;5192;50.328;7.610;2022-07-23T14:40:17;33.00;1.00
10294;DHT22;5192;50.328;7.610;2022-07-23T14:42:44;33.70;1.00
10294;DHT22;5192;50.328;7.610;2022-07-23T14:45:11;34.00;1.00
10294;DHT22;5192;50.328;7.610;2022-07-23T14:47:36;34.20;1.00
10294;DHT22;5192;50.328;7.610;2022-07-23T14:50:04;34.20;1.00
10294;DHT22;5192;50.328;7.610;2022-07-23T14:52:31;34.30;1.00
10294;DHT22;5192;50.328;7.610;2022-07-23T14:54:59;34.50;1.00
10294;DHT22;5192;50.328;7.610;2022-07-23T14:57:25;34.40;1.00
10294;DHT22;5192;50.328;7.610;2022-07-23T14:59:52;34.50;1.00
10294;DHT22;5192;50.328;7.610;2022-07-23T15:02:20;35.00;1.00
10294;DHT22;5192;50.328;7.610;2022-07-23T15:04:47;35.10;1.00
10294;DHT22;5192;50.328;7.610;2022-07-23T15:07:14;35.10;1.00
10294;DHT22;5192;50.328;7.610;2022-07-23T15:09:39;35.40;1.00
10294;DHT22;5192;50.328;7.610;2022-07-23T15:12:06;35.30;1.00
10294;DHT22;5192;50.328;7.610;2022-07-23T15:14:34;35.20;1.00
10294;DHT22;5192;50.328;7.610;2022-07-23T15:17:00;35.10;1.00
10294;DHT22;5192;50.328;7.610;2022-07-23T15:19:27;34.80;1.00
10294;DHT22;5192;50.328;7.610;2022-07-23T15:21:53;34.90;1.00
10294;DHT22;5192;50.328;7.610;2022-07-23T15:24:20;34.70;1.00
10294;DHT22;5192;50.328;7.610;2022-07-23T15:26:45;34.90;1.00
10294;DHT22;5192;50.328;7.610;2022-07-23T15:29:12;35.10;1.00
10294;DHT22;5192;50.328;7.610;2022-07-23T15:31:39;35.30;1.00
10294;DHT22;5192;50.328;7.610;2022-07-23T15:34:05;35.30;1.00
10294;DHT22;5192;50.328;7.610;2022-07-23T15:36:34;35.40;1.00
10294;DHT22;5192;50.328;7.610;2022-07-23T15:39:00;35.20;1.00
10294;DHT22;5192;50.328;7.610;2022-07-23T15:41:28;35.10;1.00
10294;DHT22;5192;50.328;7.610;2022-07-23T15:43:55;35.10;1.00
10294;DHT22;5192;50.328;7.610;2022-07-23T15:46:23;35.10;1.00
10294;DHT22;5192;50.328;7.610;2022-07-23T15:48:52;35.40;1.00
10294;DHT22;5192;50.328;7.610;2022-07-23T15:51:18;35.50;1.00
10294;DHT22;5192;50.328;7.610;2022-07-23T15:53:44;35.50;1.00
10294;DHT22;5192;50.328;7.610;2022-07-23T15:56:11;35.50;1.00
10294;DHT22;5192;50.328;7.610;2022-07-23T15:58:37;35.50;1.00
10294;DHT22;5192;50.328;7.610;2022-07-23T16:01:05;35.50;1.00
10294;DHT22;5192;50.328;7.610;2022-07-23T16:03:37;34.80;1.00
10294;DHT22;5192;50.328;7.610;2022-07-23T16:06:07;34.30;1.00
10294;DHT22;5192;50.328;7.610;2022-07-23T16:08:34;33.90;1.00
10294;DHT22;5192;50.328;7.610;2022-07-23T16:11:01;33.20;1.00
10294;DHT22;5192;50.328;7.610;2022-07-23T16:13:28;32.80;1.00
10294;DHT22;5192;50.328;7.610;2022-07-23T16:15:54;32.40;1.00
10294;DHT22;5192;50.328;7.610;2022-07-23T16:18:21;32.30;1.00
10294;DHT22;5192;50.328;7.610;2022-07-23T16:20:53;31.90;1.00